createdAt,value
2019-03-09T00:00:34.661Z,6.00
2019-03-09T00:03:04.323Z,5.65
2019-03-09T00:05:33.944Z,6.08
2019-03-09T00:08:03.653Z,5.60
2019-03-09T00:10:33.263Z,5.95
2019-03-09T00:13:02.953Z,6.20
2019-03-09T00:15:32.620Z,5.53
2019-03-09T00:18:02.279Z,6.10
2019-03-09T00:20:31.992Z,5.33
2019-03-09T00:23:26.515Z,5.37
2019-03-09T00:26:27.063Z,5.58
2019-03-09T00:29:15.541Z,5.70
2019-03-09T00:31:50.298Z,5.22
2019-03-09T00:34:19.916Z,5.47
2019-03-09T00:36:49.639Z,5.80
2019-03-09T00:39:19.326Z,5.47
2019-03-09T00:41:48.952Z,5.10
2019-03-09T00:44:18.649Z,5.55
2019-03-09T00:46:48.265Z,5.50
2019-03-09T00:49:17.974Z,5.10
2019-03-09T00:51:47.585Z,5.40
2019-03-09T00:54:17.340Z,5.42
2019-03-09T00:56:46.990Z,5.12
2019-03-09T00:59:16.624Z,5.12
2019-03-09T01:01:46.315Z,5.70
2019-03-09T01:04:15.935Z,5.10
2019-03-09T01:06:45.677Z,5.95
2019-03-09T01:09:15.247Z,5.30
2019-03-09T01:11:44.957Z,5.25
2019-03-09T01:14:14.669Z,5.12
2019-03-09T01:16:44.372Z,5.28
2019-03-09T01:19:14.091Z,5.17
2019-03-09T01:21:43.707Z,4.80
2019-03-09T01:24:13.326Z,4.70
2019-03-09T01:26:42.938Z,5.03
2019-03-09T01:29:12.628Z,4.90
2019-03-09T01:31:42.260Z,5.12
2019-03-09T01:34:11.948Z,5.30
2019-03-09T01:36:41.654Z,4.75
2019-03-09T01:39:11.283Z,5.17
2019-03-09T01:41:40.968Z,5.15
2019-03-09T01:44:10.516Z,4.47
2019-03-09T01:46:40.095Z,5.15
2019-03-09T01:49:09.814Z,4.75
2019-03-09T01:51:39.497Z,4.90
2019-03-09T01:54:09.230Z,4.87
2019-03-09T01:56:38.858Z,5.20
2019-03-09T01:59:08.543Z,5.35
2019-03-09T02:01:38.159Z,4.70
2019-03-09T02:04:07.866Z,4.92
2019-03-09T02:06:37.484Z,4.97
2019-03-09T02:09:07.601Z,4.65
2019-03-09T02:11:37.208Z,4.40
2019-03-09T02:14:06.912Z,5.28
2019-03-09T02:16:36.527Z,4.62
2019-03-09T02:19:06.227Z,4.58
2019-03-09T02:21:35.932Z,4.65
2019-03-09T02:24:05.645Z,5.47
2019-03-09T02:26:35.362Z,4.33
2019-03-09T02:29:04.992Z,4.58
2019-03-09T02:31:34.579Z,4.62
2019-03-09T02:34:04.214Z,5.17
2019-03-09T02:36:33.898Z,4.60
2019-03-09T02:39:25.206Z,4.50
2019-03-09T02:41:54.829Z,4.95
2019-03-09T02:44:24.539Z,4.72
2019-03-09T02:46:54.253Z,4.78
2019-03-09T02:49:23.955Z,4.62
2019-03-09T02:51:53.580Z,4.80
2019-03-09T02:54:23.277Z,4.97
2019-03-09T02:56:52.897Z,4.85
2019-03-09T02:59:22.596Z,4.70
2019-03-09T03:02:11.073Z,4.85
2019-03-09T03:04:40.761Z,4.50
2019-03-09T03:07:10.382Z,4.85
2019-03-09T03:09:40.069Z,4.95
2019-03-09T03:12:09.701Z,5.03
2019-03-09T03:14:39.392Z,5.03
2019-03-09T03:17:09.107Z,4.45
2019-03-09T03:19:38.817Z,4.45
2019-03-09T03:22:08.538Z,4.87
2019-03-09T03:24:38.148Z,5.15
2019-03-09T03:27:07.857Z,4.40
2019-03-09T03:29:37.471Z,4.92
2019-03-09T03:32:07.167Z,4.40
2019-03-09T03:34:36.787Z,4.17
2019-03-09T03:37:06.493Z,4.65
2019-03-09T03:39:36.199Z,4.60
2019-03-09T03:42:05.916Z,4.75
2019-03-09T03:44:44.799Z,4.40
2019-03-09T03:47:15.912Z,4.62
2019-03-09T03:49:45.652Z,4.50
2019-03-09T03:52:15.216Z,4.58
2019-03-09T03:54:44.908Z,4.50
2019-03-09T03:57:14.537Z,4.83
2019-03-09T03:59:44.221Z,5.00
2019-03-09T04:02:13.942Z,4.85
2019-03-09T04:04:43.557Z,4.33
2019-03-09T04:07:13.274Z,4.90
2019-03-09T04:09:42.884Z,4.60
2019-03-09T04:12:12.579Z,3.80
2019-03-09T04:14:42.213Z,4.20
2019-03-09T04:17:11.899Z,4.05
2019-03-09T04:19:41.611Z,4.60
2019-03-09T04:22:11.347Z,4.65
2019-03-09T04:24:41.031Z,4.53
2019-03-09T04:27:10.700Z,4.20
2019-03-09T04:29:40.347Z,4.22
2019-03-09T04:32:09.979Z,4.05
2019-03-09T04:34:39.668Z,4.10
2019-03-09T04:37:09.293Z,4.75
2019-03-09T04:39:38.994Z,3.92
2019-03-09T04:42:08.779Z,4.45
2019-03-09T04:44:38.510Z,4.12
2019-03-09T04:47:08.123Z,4.53
2019-03-09T04:49:37.746Z,4.10
2019-03-09T04:52:07.439Z,4.50
2019-03-09T04:54:37.067Z,4.90
2019-03-09T04:57:06.754Z,5.42
2019-03-09T04:59:36.635Z,5.03
2019-03-09T05:02:06.296Z,5.05
2019-03-09T05:04:52.459Z,4.72
2019-03-09T05:07:36.935Z,4.95
2019-03-09T05:10:13.368Z,4.85
2019-03-09T05:12:42.985Z,5.20
2019-03-09T05:15:13.388Z,5.08
2019-03-09T05:17:44.188Z,4.90
2019-03-09T05:20:13.886Z,5.30
2019-03-09T05:22:43.506Z,5.22
2019-03-09T05:25:13.421Z,4.87
2019-03-09T05:27:43.078Z,5.62
2019-03-09T05:30:13.904Z,5.95
2019-03-09T05:32:43.564Z,5.92
2019-03-09T05:35:13.190Z,5.85
2019-03-09T05:37:43.534Z,5.72
2019-03-09T05:40:13.556Z,5.95
2019-03-09T05:42:43.333Z,5.72
2019-03-09T05:45:13.299Z,5.87
2019-03-09T05:47:43.268Z,6.75
2019-03-09T05:50:13.967Z,6.08
2019-03-09T05:52:43.523Z,6.45
2019-03-09T05:55:17.893Z,6.85
2019-03-09T05:57:47.466Z,6.90
2019-03-09T06:00:19.462Z,7.12
2019-03-09T06:02:49.551Z,6.47
2019-03-09T06:05:30.570Z,6.97
2019-03-09T06:08:00.245Z,6.37
2019-03-09T06:10:29.926Z,6.92
2019-03-09T06:12:59.625Z,6.28
2019-03-09T06:15:30.558Z,6.08
2019-03-09T06:18:00.462Z,6.25
2019-03-09T06:20:30.148Z,6.15
2019-03-09T06:22:59.812Z,6.22
2019-03-09T06:25:30.816Z,6.28
2019-03-09T06:28:00.640Z,5.85
2019-03-09T06:30:30.549Z,6.42
2019-03-09T06:33:22.210Z,6.20
2019-03-09T06:36:30.519Z,5.97
2019-03-09T06:39:20.921Z,5.53
2019-03-09T06:42:10.800Z,6.30
2019-03-09T06:44:40.436Z,5.87
2019-03-09T06:47:10.121Z,6.15
2019-03-09T06:49:39.756Z,5.47
2019-03-09T06:52:09.432Z,6.03
2019-03-09T06:54:39.072Z,5.75
2019-03-09T06:57:13.919Z,5.60
2019-03-09T06:59:40.236Z,5.65
2019-03-09T07:02:10.425Z,5.92
2019-03-09T07:04:40.060Z,5.72
2019-03-09T07:07:09.745Z,5.67
2019-03-09T07:09:39.370Z,5.75
2019-03-09T07:12:09.059Z,6.35
2019-03-09T07:15:13.799Z,5.62
2019-03-09T07:17:43.419Z,6.25
2019-03-09T07:20:13.233Z,5.45
2019-03-09T07:22:42.857Z,5.60
2019-03-09T07:25:12.550Z,5.37
2019-03-09T07:27:42.173Z,5.58
2019-03-09T07:30:14.946Z,5.75
2019-03-09T07:32:44.532Z,5.75
2019-03-09T07:35:14.175Z,5.80
2019-03-09T07:37:43.856Z,5.70
2019-03-09T07:40:13.508Z,5.97
2019-03-09T07:42:43.171Z,5.70
2019-03-09T07:45:13.545Z,5.70
2019-03-09T07:47:43.206Z,6.10
2019-03-09T07:50:13.105Z,5.78
2019-03-09T07:52:42.841Z,5.35
2019-03-09T07:55:14.041Z,6.17
2019-03-09T07:57:43.704Z,6.00
2019-03-09T08:00:15.100Z,6.60
2019-03-09T08:02:44.758Z,6.03
2019-03-09T08:05:14.407Z,5.70
2019-03-09T08:07:44.161Z,6.33
2019-03-09T08:10:18.335Z,5.47
2019-03-09T08:12:48.005Z,5.75
2019-03-09T08:15:18.275Z,5.47
2019-03-09T08:17:55.867Z,5.67
2019-03-09T08:20:25.677Z,5.70
2019-03-09T08:22:55.345Z,5.90
2019-03-09T08:25:25.073Z,5.97
2019-03-09T08:27:54.794Z,5.67
2019-03-09T08:30:24.627Z,5.45
2019-03-09T08:32:54.297Z,5.58
2019-03-09T08:35:23.924Z,6.03
2019-03-09T08:37:53.933Z,5.40
2019-03-09T08:40:23.633Z,5.35
2019-03-09T08:42:53.351Z,5.35
2019-03-09T08:45:22.983Z,5.75
2019-03-09T08:47:53.154Z,6.15
2019-03-09T08:50:23.048Z,6.50
2019-03-09T08:52:52.660Z,7.60
2019-03-09T08:55:22.324Z,6.83
2019-03-09T08:57:52.059Z,6.60
2019-03-09T09:00:26.693Z,9.30
2019-03-09T09:02:56.280Z,12.45
2019-03-09T09:05:25.974Z,11.15
2019-03-09T09:07:55.686Z,11.85
2019-03-09T09:10:25.319Z,14.70
2019-03-09T09:12:54.994Z,15.05
2019-03-09T09:15:24.627Z,15.72
2019-03-09T09:17:54.311Z,16.23
2019-03-09T09:20:24.160Z,16.62
2019-03-09T09:22:53.836Z,16.82
2019-03-09T09:25:23.483Z,16.73
2019-03-09T09:27:53.155Z,16.67
2019-03-09T09:30:24.862Z,17.37
2019-03-09T09:32:54.565Z,17.82
2019-03-09T09:35:24.151Z,19.60
2019-03-09T09:37:54.045Z,18.20
2019-03-09T09:40:23.926Z,18.07
2019-03-09T09:42:53.569Z,20.20
2019-03-09T09:45:23.200Z,20.00
2019-03-09T09:47:52.890Z,21.48
2019-03-09T09:50:22.603Z,22.35
2019-03-09T09:52:52.310Z,23.87
2019-03-09T09:55:22.034Z,24.57
2019-03-09T09:57:51.663Z,24.55
2019-03-09T10:00:23.150Z,22.35
2019-03-09T10:02:52.904Z,22.93
2019-03-09T10:05:22.607Z,25.48
2019-03-09T10:07:52.353Z,30.05
2019-03-09T10:10:22.080Z,29.23
2019-03-09T10:12:51.654Z,30.37
2019-03-09T10:15:23.228Z,32.58
2019-03-09T10:17:52.827Z,32.60
2019-03-09T10:20:22.463Z,32.20
2019-03-09T10:22:52.041Z,31.35
2019-03-09T10:25:21.726Z,32.15
2019-03-09T10:27:51.445Z,31.10
2019-03-09T10:30:21.918Z,29.32
2019-03-09T10:32:51.578Z,29.77
2019-03-09T10:35:21.307Z,27.98
2019-03-09T10:37:50.921Z,28.15
2019-03-09T10:40:21.028Z,27.52
2019-03-09T10:42:50.638Z,27.65
2019-03-09T10:45:20.242Z,27.15
2019-03-09T10:47:49.866Z,26.90
2019-03-09T10:50:19.581Z,26.27
2019-03-09T10:52:49.239Z,27.42
2019-03-09T10:55:20.373Z,27.95
2019-03-09T10:57:50.192Z,27.07
2019-03-09T11:00:27.810Z,26.95
2019-03-09T11:02:57.460Z,24.80
2019-03-09T11:05:27.138Z,24.43
2019-03-09T11:07:56.847Z,23.12
2019-03-09T11:10:26.593Z,24.77
2019-03-09T11:12:56.273Z,25.10
2019-03-09T11:15:25.949Z,24.63
2019-03-09T11:17:55.587Z,23.70
2019-03-09T11:20:25.219Z,24.37
2019-03-09T11:22:54.918Z,22.25
2019-03-09T11:25:24.674Z,19.23
2019-03-09T11:27:54.330Z,18.60
2019-03-09T11:30:25.328Z,17.80
2019-03-09T11:32:54.914Z,17.10
2019-03-09T11:35:24.590Z,16.57
2019-03-09T11:37:54.306Z,17.35
2019-03-09T11:40:23.942Z,17.75
2019-03-09T11:42:53.635Z,16.62
2019-03-09T11:45:23.278Z,17.62
2019-03-09T11:47:52.948Z,17.32
2019-03-09T11:50:22.494Z,15.13
2019-03-09T11:52:52.104Z,15.18
2019-03-09T11:55:21.769Z,16.93
2019-03-09T11:57:51.399Z,14.65
2019-03-09T12:00:25.118Z,13.75
2019-03-09T12:02:54.793Z,14.07
2019-03-09T12:05:24.437Z,13.58
2019-03-09T12:07:54.108Z,13.50
2019-03-09T12:10:23.734Z,12.85
2019-03-09T12:12:53.440Z,11.93
2019-03-09T12:15:23.151Z,12.15
2019-03-09T12:17:52.865Z,11.48
2019-03-09T12:20:23.779Z,11.22
2019-03-09T12:23:01.057Z,10.88
2019-03-09T12:25:24.862Z,11.08
2019-03-09T12:27:54.480Z,10.93
2019-03-09T12:30:24.180Z,10.30
2019-03-09T12:32:53.882Z,10.00
2019-03-09T12:35:23.601Z,10.88
2019-03-09T12:37:53.375Z,10.48
2019-03-09T12:40:23.123Z,10.63
2019-03-09T12:42:52.829Z,10.72
2019-03-09T12:45:22.468Z,10.93
2019-03-09T12:47:52.160Z,10.70
2019-03-09T12:50:21.785Z,9.93
2019-03-09T12:52:51.461Z,11.10
2019-03-09T12:55:21.207Z,9.38
2019-03-09T12:57:50.898Z,9.65
2019-03-09T13:00:20.667Z,8.90
2019-03-09T13:02:50.385Z,8.30
2019-03-09T13:05:20.119Z,8.08
2019-03-09T13:07:49.751Z,6.83
2019-03-09T13:10:19.550Z,8.25
2019-03-09T13:12:49.162Z,6.92
2019-03-09T13:15:18.870Z,7.60
2019-03-09T13:17:48.605Z,7.05
2019-03-09T13:20:18.296Z,7.37
2019-03-09T13:22:47.909Z,6.17
2019-03-09T13:25:17.630Z,6.55
2019-03-09T13:27:47.317Z,6.95
2019-03-09T13:30:18.764Z,7.75
2019-03-09T13:32:48.371Z,6.28
2019-03-09T13:35:17.995Z,6.53
2019-03-09T13:37:47.700Z,6.35
2019-03-09T13:40:17.238Z,6.20
2019-03-09T13:42:46.911Z,6.08
2019-03-09T13:45:16.534Z,7.97
2019-03-09T13:47:46.261Z,7.37
2019-03-09T13:50:15.869Z,6.92
2019-03-09T13:52:45.471Z,6.00
2019-03-09T13:55:15.159Z,5.58
2019-03-09T13:57:44.796Z,6.62
2019-03-09T14:00:15.244Z,6.10
2019-03-09T14:02:44.913Z,6.33
2019-03-09T14:05:14.659Z,5.58
2019-03-09T14:07:44.332Z,5.67
2019-03-09T14:10:14.147Z,6.17
2019-03-09T14:12:43.862Z,5.67
2019-03-09T14:15:14.427Z,5.75
2019-03-09T14:17:44.097Z,6.53
2019-03-09T14:20:13.728Z,5.55
2019-03-09T14:22:43.429Z,4.97
2019-03-09T14:25:13.121Z,5.10
2019-03-09T14:27:42.840Z,5.25
2019-03-09T14:30:13.945Z,5.05
2019-03-09T14:32:43.596Z,4.80
2019-03-09T14:35:13.292Z,5.37
2019-03-09T14:37:43.019Z,5.30
2019-03-09T14:40:12.843Z,4.67
2019-03-09T14:42:42.535Z,6.45
2019-03-09T14:45:14.746Z,8.13
2019-03-09T14:47:44.446Z,9.53
2019-03-09T14:50:14.023Z,9.80
2019-03-09T14:52:43.753Z,9.98
2019-03-09T14:55:13.373Z,9.70
2019-03-09T14:57:43.065Z,10.70
2019-03-09T15:00:15.626Z,9.83
2019-03-09T15:02:45.301Z,9.48
2019-03-09T15:05:14.945Z,9.43
2019-03-09T15:07:44.684Z,9.10
2019-03-09T15:10:14.397Z,8.80
2019-03-09T15:12:43.994Z,8.58
2019-03-09T15:15:13.896Z,8.10
2019-03-09T15:17:43.630Z,8.13
2019-03-09T15:20:13.377Z,7.30
2019-03-09T15:22:42.939Z,8.43
2019-03-09T15:25:13.054Z,8.95
2019-03-09T15:27:42.654Z,9.30
2019-03-09T15:30:13.743Z,8.68
2019-03-09T15:32:43.405Z,7.75
2019-03-09T15:35:13.049Z,8.93
2019-03-09T15:37:42.736Z,8.70
2019-03-09T15:40:12.590Z,8.58
2019-03-09T15:42:42.250Z,7.08
2019-03-09T15:45:12.276Z,8.33
2019-03-09T15:47:41.989Z,7.75
2019-03-09T15:50:12.351Z,8.55
2019-03-09T15:52:41.937Z,7.87
2019-03-09T15:55:11.620Z,9.05
2019-03-09T15:57:41.257Z,8.95
2019-03-09T16:00:14.068Z,9.38
2019-03-09T16:02:43.839Z,12.43
2019-03-09T16:05:13.541Z,16.50
2019-03-09T16:07:43.283Z,19.60
2019-03-09T16:10:13.927Z,20.75
2019-03-09T16:12:43.702Z,22.32
2019-03-09T16:15:14.083Z,23.62
2019-03-09T16:17:43.840Z,25.43
2019-03-09T16:20:15.240Z,27.58
2019-03-09T16:22:44.914Z,26.60
2019-03-09T16:25:14.520Z,33.33
2019-03-09T16:27:44.233Z,36.63
2019-03-09T16:30:16.147Z,30.90
2019-03-09T16:32:45.797Z,26.82
2019-03-09T16:35:15.502Z,33.92
2019-03-09T16:37:45.200Z,31.10
2019-03-09T16:40:15.461Z,25.25
2019-03-09T16:42:45.051Z,28.12
2019-03-09T16:45:14.809Z,36.85
2019-03-09T16:47:44.385Z,25.25
2019-03-09T16:50:14.068Z,25.43
2019-03-09T16:52:43.745Z,26.33
2019-03-09T16:55:13.396Z,33.98
2019-03-09T16:57:43.219Z,34.67
2019-03-09T17:00:15.554Z,36.58
2019-03-09T17:02:45.353Z,31.87
2019-03-09T17:05:15.353Z,30.77
2019-03-09T17:07:45.031Z,30.65
2019-03-09T17:10:14.757Z,31.82
2019-03-09T17:12:44.446Z,30.88
2019-03-09T17:15:16.075Z,32.00
2019-03-09T17:17:45.851Z,29.77
2019-03-09T17:20:15.729Z,31.57
2019-03-09T17:22:45.382Z,30.20
2019-03-09T17:25:16.396Z,29.95
2019-03-09T17:27:46.011Z,30.88
2019-03-09T17:30:16.807Z,29.98
2019-03-09T17:32:46.760Z,28.17
2019-03-09T17:35:16.449Z,28.07
2019-03-09T17:37:46.162Z,29.57
2019-03-09T17:40:15.992Z,27.35
2019-03-09T17:42:45.821Z,28.00
2019-03-09T17:45:19.364Z,28.10
2019-03-09T17:47:49.057Z,27.75
2019-03-09T17:50:19.626Z,27.73
2019-03-09T17:52:49.345Z,26.02
2019-03-09T17:55:18.794Z,28.55
2019-03-09T17:57:48.557Z,27.02
2019-03-09T18:00:20.387Z,25.82
2019-03-09T18:02:49.946Z,27.75
2019-03-09T18:05:20.141Z,25.92
2019-03-09T18:07:50.031Z,26.07
2019-03-09T18:10:23.258Z,26.87
2019-03-09T18:12:52.892Z,25.97
2019-03-09T18:15:22.619Z,26.68
2019-03-09T18:17:52.195Z,25.60
2019-03-09T18:20:21.938Z,24.75
2019-03-09T18:22:51.542Z,25.82
2019-03-09T18:25:21.215Z,25.55
2019-03-09T18:27:50.851Z,25.37
2019-03-09T18:30:20.531Z,23.20
2019-03-09T18:32:50.285Z,23.60
2019-03-09T18:35:19.871Z,24.18
2019-03-09T18:37:49.559Z,24.43
2019-03-09T18:40:19.298Z,24.27
2019-03-09T18:42:48.877Z,23.87
2019-03-09T18:45:18.603Z,23.95
2019-03-09T18:47:48.350Z,23.75
2019-03-09T18:50:17.923Z,23.52
2019-03-09T18:52:47.550Z,22.98
2019-03-09T18:55:17.234Z,23.52
2019-03-09T18:57:46.859Z,22.42
2019-03-09T19:00:17.591Z,22.80
2019-03-09T19:02:47.387Z,22.90
2019-03-09T19:05:17.017Z,19.50
2019-03-09T19:07:46.708Z,21.42
2019-03-09T19:10:16.483Z,20.52
2019-03-09T19:12:46.235Z,20.70
2019-03-09T19:15:15.949Z,20.80
2019-03-09T19:17:45.658Z,20.40
2019-03-09T19:20:15.368Z,19.55
2019-03-09T19:22:45.013Z,20.85
2019-03-09T19:25:14.692Z,20.77
2019-03-09T19:27:44.306Z,21.93
2019-03-09T19:30:15.296Z,20.57
2019-03-09T19:32:45.063Z,19.77
2019-03-09T19:35:14.768Z,20.27
2019-03-09T19:37:44.471Z,19.27
2019-03-09T19:40:14.846Z,19.70
2019-03-09T19:42:44.485Z,20.65
2019-03-09T19:45:14.586Z,18.98
2019-03-09T19:47:44.303Z,18.98
2019-03-09T19:50:15.947Z,19.40
2019-03-09T19:52:45.533Z,19.40
2019-03-09T19:55:15.145Z,18.73
2019-03-09T19:57:44.805Z,18.07
2019-03-09T20:00:14.972Z,19.10
2019-03-09T20:02:44.622Z,19.40
2019-03-09T20:05:14.289Z,19.32
2019-03-09T20:07:43.978Z,18.37
2019-03-09T20:10:14.162Z,19.07
2019-03-09T20:12:43.574Z,19.00
2019-03-09T20:15:13.965Z,18.75
2019-03-09T20:17:45.766Z,19.35
2019-03-09T20:20:15.127Z,18.57
2019-03-09T20:22:44.846Z,17.45
2019-03-09T20:25:14.461Z,18.35
2019-03-09T20:27:44.156Z,17.82
2019-03-09T20:30:14.193Z,18.02
2019-03-09T20:32:43.885Z,17.15
2019-03-09T20:35:13.501Z,17.55
2019-03-09T20:37:43.261Z,17.02
2019-03-09T20:40:13.160Z,17.42
2019-03-09T20:42:42.831Z,16.90
2019-03-09T20:45:14.665Z,16.80
2019-03-09T20:47:44.609Z,16.90
2019-03-09T20:50:15.276Z,16.90
2019-03-09T20:52:44.958Z,16.70
2019-03-09T20:55:14.660Z,16.32
2019-03-09T20:57:44.410Z,17.05
2019-03-09T21:00:15.856Z,16.32
2019-03-09T21:02:45.531Z,16.25
2019-03-09T21:05:15.247Z,16.07
2019-03-09T21:07:44.957Z,15.70
2019-03-09T21:10:15.681Z,15.80
2019-03-09T21:13:13.680Z,15.23
2019-03-09T21:15:43.384Z,16.32
2019-03-09T21:18:13.002Z,15.35
2019-03-09T21:20:42.698Z,15.65
2019-03-09T21:23:12.314Z,15.88
2019-03-09T21:25:42.017Z,14.55
2019-03-09T21:28:11.631Z,14.93
2019-03-09T21:30:41.370Z,15.13
2019-03-09T21:33:11.037Z,15.25
2019-03-09T21:35:40.757Z,15.00
2019-03-09T21:38:10.470Z,15.05
2019-03-09T21:40:40.103Z,14.28
2019-03-09T21:43:09.781Z,14.05
2019-03-09T21:45:39.411Z,14.18
2019-03-09T21:48:09.106Z,13.75
2019-03-09T21:50:38.733Z,14.18
2019-03-09T21:53:08.480Z,13.90
2019-03-09T21:55:38.239Z,14.87
2019-03-09T21:58:07.946Z,13.72
2019-03-09T22:00:37.656Z,14.03
2019-03-09T22:03:07.278Z,14.45
2019-03-09T22:05:36.982Z,14.03
2019-03-09T22:08:06.629Z,15.03
2019-03-09T22:10:36.299Z,14.40
2019-03-09T22:13:05.918Z,14.20
2019-03-09T22:15:35.623Z,13.50
2019-03-09T22:18:05.323Z,13.60
2019-03-09T22:20:35.092Z,13.85
2019-03-09T22:23:04.746Z,13.65
2019-03-09T22:25:34.368Z,12.65
2019-03-09T22:28:03.997Z,13.48
2019-03-09T22:30:33.606Z,14.05
2019-03-09T22:33:04.691Z,12.93
2019-03-09T22:35:34.546Z,13.48
2019-03-09T22:38:04.252Z,13.20
2019-03-09T22:40:33.953Z,13.72
2019-03-09T22:43:03.674Z,13.35
2019-03-09T22:45:33.373Z,12.88
2019-03-09T22:48:03.054Z,12.90
2019-03-09T22:50:32.799Z,13.40
2019-03-09T22:53:02.425Z,13.18
2019-03-09T22:55:32.024Z,13.75
2019-03-09T22:58:01.638Z,12.95
2019-03-09T23:00:31.425Z,14.15
2019-03-09T23:03:01.047Z,12.55
2019-03-09T23:05:30.753Z,12.70
2019-03-09T23:08:00.468Z,12.75
2019-03-09T23:10:30.088Z,13.35
2019-03-09T23:12:59.794Z,12.30
2019-03-09T23:15:29.404Z,12.70
2019-03-09T23:17:59.110Z,12.53
2019-03-09T23:20:28.731Z,12.58
2019-03-09T23:22:58.429Z,11.78
2019-03-09T23:25:28.133Z,12.35
2019-03-09T23:27:57.759Z,11.73
2019-03-09T23:30:27.472Z,11.57
2019-03-09T23:32:57.093Z,11.83
2019-03-09T23:35:26.777Z,11.20
2019-03-09T23:37:56.390Z,12.15
2019-03-09T23:40:26.096Z,11.95
2019-03-09T23:42:55.809Z,11.45
2019-03-09T23:45:25.522Z,11.45
2019-03-09T23:47:55.227Z,11.70
2019-03-09T23:50:24.864Z,11.03
2019-03-09T23:52:54.541Z,10.88
2019-03-09T23:55:24.188Z,11.00
2019-03-09T23:57:53.963Z,10.85
